Time;durP1;ratioP1;P1;durP2;ratioP2;P2;SDS_P1;SDS_P2;PMS_P1;PMS_P2;Temp;Humidity;BMP_temperature;BMP_pressure;BME280_temperature;BME280_humidity;BME280_pressure;Samples;Min_cycle;Max_cycle;Signal;HPM_P1;HPM_P2
2021/06/23 00:00:20;;;;;;;5.07;3.40;;;20.20;99.90;;;;;;5031683;28;20487;-58
2021/06/23 00:02:47;;;;;;;4.10;3.80;;;20.20;99.90;;;;;;5030676;28;20461;-58
2021/06/23 00:05:15;;;;;;;4.70;4.30;;;20.10;99.90;;;;;;5031639;28;20534;-59
2021/06/23 00:07:43;;;;;;;4.00;3.57;;;20.20;99.90;;;;;;5030857;28;20464;-58
2021/06/23 00:10:11;;;;;;;3.60;3.30;;;20.10;99.90;;;;;;5031295;28;20511;-58
2021/06/23 00:12:39;;;;;;;3.77;3.47;;;20.10;99.90;;;;;;5030856;28;21021;-58
2021/06/23 00:15:08;;;;;;;3.70;3.40;;;20.10;99.90;;;;;;5031756;28;20448;-59
2021/06/23 00:17:35;;;;;;;3.90;3.50;;;20.20;99.90;;;;;;5030911;28;20534;-59
2021/06/23 00:20:02;;;;;;;3.47;3.17;;;20.10;99.90;;;;;;5031265;28;21008;-59
2021/06/23 00:22:29;;;;;;;4.10;3.50;;;20.20;99.90;;;;;;5030398;28;20463;-58
2021/06/23 00:24:57;;;;;;;3.80;3.40;;;20.20;99.90;;;;;;5031173;28;20518;-59
2021/06/23 00:27:24;;;;;;;3.50;3.20;;;20.20;99.90;;;;;;5030976;28;20473;-59
2021/06/23 00:29:51;;;;;;;3.50;3.20;;;20.10;99.90;;;;;;5031187;28;20456;-58
2021/06/23 00:32:20;;;;;;;3.70;3.40;;;20.20;99.90;;;;;;5030635;28;20460;-58
2021/06/23 00:34:48;;;;;;;3.90;3.47;;;20.20;99.90;;;;;;5031270;28;20448;-58
2021/06/23 00:37:15;;;;;;;4.63;3.10;;;20.20;99.90;;;;;;5033622;28;20460;-58
2021/06/23 00:39:42;;;;;;;3.50;3.23;;;20.10;99.90;;;;;;5034857;28;20456;-58
2021/06/23 00:42:11;;;;;;;3.47;3.00;;;20.00;99.90;;;;;;5034454;28;20966;-58
2021/06/23 00:44:41;;;;;;;2.90;2.57;;;20.00;99.90;;;;;;5034986;28;20514;-58
2021/06/23 00:47:08;;;;;;;3.60;3.30;;;20.00;99.90;;;;;;5034496;28;21013;-58
2021/06/23 00:49:36;;;;;;;3.53;3.27;;;19.90;99.90;;;;;;5034747;28;20452;-58
2021/06/23 00:52:05;;;;;;;3.37;3.07;;;19.90;99.90;;;;;;5034113;28;20480;-58
2021/06/23 00:54:32;;;;;;;3.97;3.07;;;19.70;99.90;;;;;;5034620;28;20876;-58
2021/06/23 00:56:59;;;;;;;3.30;3.00;;;19.50;99.90;;;;;;5034381;28;20510;-58
2021/06/23 00:59:28;;;;;;;3.10;2.90;;;19.40;99.90;;;;;;5034476;28;20982;-58
2021/06/23 01:01:55;;;;;;;3.50;3.00;;;19.50;99.90;;;;;;5033798;28;20456;-58
2021/06/23 01:04:22;;;;;;;3.57;3.07;;;19.40;99.90;;;;;;5034454;28;20543;-58
2021/06/23 01:06:50;;;;;;;3.83;3.27;;;19.40;99.90;;;;;;5033930;28;20514;-58
2021/06/23 01:09:17;;;;;;;4.17;3.20;;;19.30;99.90;;;;;;5034468;28;20989;-58
2021/06/23 01:12:03;;;;;;;3.43;3.13;;;19.30;99.90;;;;;;5033957;28;20480;-59
2021/06/23 01:14:36;;;;;;;3.27;3.07;;;19.20;99.90;;;;;;5034388;28;20455;-58
2021/06/23 01:17:06;;;;;;;4.97;3.07;;;19.10;99.90;;;;;;5033464;28;20831;-57
2021/06/23 01:19:37;;;;;;;3.60;3.30;;;19.10;99.90;;;;;;5034152;28;20867;-59
2021/06/23 01:22:05;;;;;;;4.03;3.70;;;19.10;99.90;;;;;;5033773;28;20487;-58
2021/06/23 01:24:32;;;;;;;3.57;3.27;;;19.10;99.90;;;;;;5034284;28;20444;-58
2021/06/23 01:26:59;;;;;;;4.13;3.80;;;19.30;99.90;;;;;;5033678;28;20510;-59
2021/06/23 01:29:27;;;;;;;4.10;3.80;;;19.40;99.90;;;;;;5033681;28;20472;-58
2021/06/23 01:31:54;;;;;;;5.47;4.20;;;19.50;99.90;;;;;;5033645;28;20481;-59
2021/06/23 01:34:21;;;;;;;3.97;3.63;;;19.60;99.90;;;;;;5034204;28;20495;-58
2021/06/23 01:36:48;;;;;;;4.20;3.90;;;19.60;99.90;;;;;;5033703;28;20811;-59
2021/06/23 01:39:16;;;;;;;4.03;3.73;;;19.70;99.90;;;;;;5033663;28;20472;-58
2021/06/23 01:41:43;;;;;;;6.53;4.67;;;19.80;99.90;;;;;;5033247;28;20499;-58
2021/06/23 01:44:10;;;;;;;4.30;4.00;;;19.80;99.90;;;;;;5033383;28;20507;-59
2021/06/23 01:46:37;;;;;;;4.70;4.30;;;19.80;99.90;;;;;;5033537;28;20453;-58
2021/06/23 01:49:04;;;;;;;4.30;3.90;;;19.70;99.90;;;;;;5032547;28;20537;-59
2021/06/23 01:51:31;;;;;;;4.67;4.27;;;19.70;99.90;;;;;;5033283;28;20488;-58
2021/06/23 01:53:58;;;;;;;5.30;4.80;;;19.80;99.90;;;;;;5033647;28;20452;-58
2021/06/23 01:56:29;;;;;;;8.77;5.43;;;19.80;99.90;;;;;;5033219;28;20456;-58
2021/06/23 01:58:56;;;;;;;5.13;4.50;;;19.70;99.90;;;;;;5032937;28;20534;-58
2021/06/23 02:01:27;;;;;;;4.90;4.13;;;19.60;99.90;;;;;;5033219;28;20862;-58
2021/06/23 02:04:10;;;;;;;7.83;4.50;;;19.00;99.90;;;;;;5033251;28;20522;-59
2021/06/23 02:06:59;;;;;;;4.40;4.00;;;18.50;99.90;;;;;;5033885;28;20448;-58
2021/06/23 02:10:14;;;;;;;4.23;3.90;;;18.50;99.90;;;;;;5032863;28;21005;-59
2021/06/23 02:13:12;;;;;;;4.33;3.93;;;18.40;99.90;;;;;;4971935;28;20801;-59
2021/06/23 02:15:41;;;;;;;3.93;3.30;;;18.40;99.90;;;;;;5012222;28;20540;-58
2021/06/23 02:18:08;;;;;;;3.90;3.60;;;18.40;99.90;;;;;;5027729;28;20530;-57
2021/06/23 02:20:37;;;;;;;5.63;3.70;;;18.40;99.90;;;;;;5013543;28;20441;-58
2021/06/23 02:23:07;;;;;;;4.03;3.47;;;18.40;99.90;;;;;;5015696;28;20457;-58
2021/06/23 02:25:34;;;;;;;4.17;3.73;;;18.50;99.90;;;;;;5032798;28;20441;-58
2021/06/23 02:28:02;;;;;;;4.00;3.70;;;18.30;99.90;;;;;;5032766;28;21076;-59
2021/06/23 02:30:29;;;;;;;4.80;3.63;;;18.20;99.90;;;;;;5033011;28;20510;-59
2021/06/23 02:32:57;;;;;;;3.57;3.23;;;18.20;99.90;;;;;;5032527;28;20453;-57
2021/06/23 02:35:26;;;;;;;3.70;3.33;;;18.20;99.90;;;;;;5032837;28;20444;-58
2021/06/23 02:37:54;;;;;;;3.67;3.37;;;18.30;99.90;;;;;;5033140;28;20483;-58
2021/06/23 02:40:23;;;;;;;4.10;3.40;;;18.50;99.90;;;;;;5032347;28;20962;-59
2021/06/23 02:42:50;;;;;;;4.37;3.60;;;18.60;99.90;;;;;;5031956;28;20452;-59
2021/06/23 02:45:19;;;;;;;3.20;2.90;;;18.60;99.90;;;;;;5017496;28;20460;-58
2021/06/23 02:47:46;;;;;;;3.70;3.40;;;18.70;99.90;;;;;;5032267;28;20469;-58
2021/06/23 02:50:13;;;;;;;5.17;3.40;;;18.70;99.90;;;;;;5032198;28;20449;-58
2021/06/23 02:52:40;;;;;;;4.20;3.83;;;18.40;99.90;;;;;;5031404;28;20480;-58
2021/06/23 02:55:09;;;;;;;5.33;3.70;;;18.30;99.90;;;;;;5032092;28;21210;-58
2021/06/23 02:57:36;;;;;;;3.93;3.40;;;18.10;99.90;;;;;;5032068;28;20475;-59
2021/06/23 03:00:06;;;;;;;3.33;3.13;;;18.10;99.90;;;;;;5031343;28;20967;-57
2021/06/23 03:02:34;;;;;;;2.97;2.77;;;18.20;99.90;;;;;;5031643;28;20444;-58
2021/06/23 03:05:01;;;;;;;3.73;3.43;;;18.40;99.90;;;;;;5032136;28;20502;-58
2021/06/23 03:07:28;;;;;;;3.27;3.00;;;18.50;99.90;;;;;;5031658;28;20473;-57
2021/06/23 03:10:06;;;;;;;3.97;3.57;;;18.50;99.90;;;;;;5032206;28;20449;-58
2021/06/23 03:12:34;;;;;;;2.97;2.77;;;18.40;99.90;;;;;;5031969;28;20550;-57
2021/06/23 03:15:01;;;;;;;3.97;3.27;;;18.30;99.90;;;;;;5031877;28;20452;-58
2021/06/23 03:17:28;;;;;;;3.00;2.80;;;18.30;99.90;;;;;;5031997;28;20484;-58
2021/06/23 03:19:56;;;;;;;3.47;3.20;;;18.30;99.90;;;;;;5031895;28;20988;-59
2021/06/23 03:22:23;;;;;;;3.50;3.20;;;18.30;99.90;;;;;;5031570;28;20836;-58
2021/06/23 03:24:50;;;;;;;4.33;3.00;;;18.20;99.90;;;;;;5031776;28;20506;-58
2021/06/23 03:27:17;;;;;;;3.27;2.97;;;18.30;99.90;;;;;;5031736;28;20449;-58
2021/06/23 03:29:44;;;;;;;3.10;2.90;;;18.40;99.90;;;;;;5031989;28;20452;-59
2021/06/23 03:32:12;;;;;;;4.70;2.93;;;18.50;99.90;;;;;;5031309;28;20476;-58
2021/06/23 03:34:40;;;;;;;2.53;2.33;;;18.60;99.90;;;;;;5031268;28;20518;-58
2021/06/23 03:37:08;;;;;;;2.50;2.30;;;18.70;99.90;;;;;;5031622;28;20548;-58
2021/06/23 03:39:36;;;;;;;2.93;2.73;;;18.80;99.90;;;;;;5031751;28;20499;-58
2021/06/23 03:42:04;;;;;;;2.33;2.20;;;18.90;99.90;;;;;;5031180;28;20467;-58
2021/06/23 03:44:31;;;;;;;2.57;2.30;;;18.90;99.90;;;;;;5031228;28;20471;-57
2021/06/23 03:47:01;;;;;;;2.70;2.50;;;18.90;99.90;;;;;;5030972;28;20518;-59
2021/06/23 03:49:28;;;;;;;4.03;3.07;;;18.90;99.90;;;;;;5031498;28;20468;-57
2021/06/23 03:51:56;;;;;;;6.70;3.27;;;18.90;99.90;;;;;;5031453;28;21009;-58
2021/06/23 03:54:24;;;;;;;7.33;3.40;;;18.90;99.90;;;;;;5031437;28;20449;-59
2021/06/23 03:56:51;;;;;;;5.00;3.13;;;18.80;99.90;;;;;;5031413;28;20962;-58
2021/06/23 03:59:18;;;;;;;8.03;3.50;;;18.80;99.90;;;;;;5031517;28;20977;-58
2021/06/23 04:01:45;;;;;;;12.10;3.73;;;18.70;99.90;;;;;;5031211;28;20440;-58
2021/06/23 04:04:12;;;;;;;4.87;4.07;;;18.70;99.90;;;;;;5031599;28;20522;-58
2021/06/23 04:06:39;;;;;;;10.10;4.00;;;18.60;99.90;;;;;;5031835;28;20506;-58
2021/06/23 04:09:06;;;;;;;4.43;4.03;;;18.60;99.90;;;;;;5031582;28;20468;-57
2021/06/23 04:11:35;;;;;;;7.23;5.27;;;18.60;99.90;;;;;;5054143;22;20546;-50
2021/06/23 04:14:01;;;;;;;6.70;3.87;;;18.60;99.90;;;;;;5035448;28;20479;-51
2021/06/23 04:16:29;;;;;;;4.23;3.80;;;18.50;99.90;;;;;;5034965;28;20448;-50
2021/06/23 04:18:56;;;;;;;4.90;3.70;;;18.60;99.90;;;;;;5033691;28;20533;-50
2021/06/23 04:21:23;;;;;;;7.20;4.70;;;18.60;99.90;;;;;;5033133;28;20469;-51
2021/06/23 04:23:50;;;;;;;7.27;4.67;;;18.50;99.90;;;;;;5030037;28;20452;-51
2021/06/23 04:26:17;;;;;;;8.40;5.67;;;18.40;99.90;;;;;;5035718;28;20440;-51
2021/06/23 04:28:45;;;;;;;6.13;5.13;;;18.30;99.90;;;;;;5035400;28;20453;-51
2021/06/23 04:31:12;;;;;;;8.27;5.10;;;18.00;99.90;;;;;;5034724;28;20558;-51
2021/06/23 04:33:39;;;;;;;4.53;4.10;;;18.00;99.90;;;;;;5035118;28;20535;-51
2021/06/23 04:36:06;;;;;;;5.50;5.00;;;18.00;99.90;;;;;;5032422;28;20514;-51
2021/06/23 04:38:33;;;;;;;7.47;5.20;;;18.00;99.90;;;;;;5015615;28;20457;-51
2021/06/23 04:41:00;;;;;;;7.80;5.50;;;18.00;99.90;;;;;;5026181;28;20448;-51
2021/06/23 04:43:27;;;;;;;5.37;4.87;;;18.00;99.90;;;;;;5034882;28;20494;-51
2021/06/23 04:45:56;;;;;;;5.33;4.27;;;17.90;99.90;;;;;;5023533;28;20453;-51
2021/06/23 04:48:23;;;;;;;5.30;4.80;;;17.90;99.90;;;;;;5033646;28;20506;-51
2021/06/23 04:50:50;;;;;;;7.07;5.53;;;18.00;99.90;;;;;;5034858;28;20506;-51
2021/06/23 04:53:17;;;;;;;6.73;4.97;;;18.10;99.90;;;;;;5033846;28;20480;-51
2021/06/23 04:55:44;;;;;;;6.50;4.73;;;18.20;99.90;;;;;;5026651;28;20482;-51
2021/06/23 04:58:11;;;;;;;5.27;4.77;;;18.10;99.90;;;;;;5034229;28;20915;-51
2021/06/23 05:00:37;;;;;;;5.80;4.73;;;18.00;99.90;;;;;;5017742;28;20453;-51
2021/06/23 05:03:06;;;;;;;6.87;5.20;;;18.00;99.90;;;;;;5016610;28;20967;-51
2021/06/23 05:05:33;;;;;;;4.60;4.20;;;18.10;99.90;;;;;;5033721;28;20867;-51
2021/06/23 05:08:00;;;;;;;8.50;5.67;;;18.10;99.90;;;;;;5027544;28;20544;-50
2021/06/23 05:10:27;;;;;;;10.67;5.70;;;18.20;99.90;;;;;;5027757;28;20472;-51
2021/06/23 05:12:54;;;;;;;6.40;5.80;;;18.30;99.90;;;;;;5027735;28;20565;-51
2021/06/23 05:15:21;;;;;;;6.83;6.10;;;18.40;99.90;;;;;;5033384;28;20880;-50
2021/06/23 05:17:48;;;;;;;8.43;7.30;;;18.20;99.90;;;;;;5034413;28;20456;-50
2021/06/23 05:20:17;;;;;;;10.80;7.50;;;18.20;99.90;;;;;;5032878;28;20448;-51
2021/06/23 05:22:47;;;;;;;11.20;7.50;;;18.10;99.90;;;;;;5031519;28;20476;-50
2021/06/23 05:25:15;;;;;;;7.73;6.93;;;18.20;99.90;;;;;;5026690;28;20506;-50
2021/06/23 05:27:42;;;;;;;8.00;6.80;;;18.30;99.90;;;;;;5017741;28;21000;-51
2021/06/23 05:30:10;;;;;;;7.50;6.47;;;18.40;99.90;;;;;;5018394;28;20445;-50
2021/06/23 05:32:37;;;;;;;5.63;5.13;;;18.70;99.90;;;;;;5033148;28;20488;-50
2021/06/23 05:35:05;;;;;;;6.67;5.60;;;19.50;99.90;;;;;;5033349;28;20457;-49
2021/06/23 05:37:34;;;;;;;4.87;4.40;;;20.90;99.90;;;;;;5020159;28;20449;-51
2021/06/23 05:40:01;;;;;;;4.00;3.70;;;22.30;99.90;;;;;;5014156;28;20477;-50
2021/06/23 05:42:27;;;;;;;4.07;3.67;;;23.20;99.90;;;;;;5019744;28;20523;-50
2021/06/23 05:44:54;;;;;;;4.43;3.53;;;24.20;99.90;;;;;;5017788;28;20499;-50
2021/06/23 05:47:21;;;;;;;3.17;2.97;;;25.00;99.90;;;;;;5022182;28;20450;-50
2021/06/23 05:49:48;;;;;;;3.33;3.13;;;25.70;99.90;;;;;;5031502;28;20456;-50
2021/06/23 05:52:15;;;;;;;4.10;3.60;;;25.80;99.90;;;;;;5022930;28;20484;-50
2021/06/23 05:54:44;;;;;;;3.93;3.60;;;25.50;99.90;;;;;;5033583;28;20507;-50
2021/06/23 05:57:11;;;;;;;3.60;3.30;;;25.80;99.90;;;;;;5032947;28;20453;-51
2021/06/23 05:59:38;;;;;;;4.83;3.50;;;26.50;99.90;;;;;;5033527;28;20507;-51
2021/06/23 06:02:05;;;;;;;3.03;2.73;;;27.20;99.90;;;;;;5033255;28;20461;-50
2021/06/23 06:04:32;;;;;;;2.80;2.60;;;27.60;99.90;;;;;;5029159;28;20448;-51
2021/06/23 06:06:59;;;;;;;3.73;2.70;;;27.70;99.90;;;;;;5028037;28;20456;-50
2021/06/23 06:09:26;;;;;;;3.13;2.93;;;27.10;99.90;;;;;;5024066;28;20452;-50
2021/06/23 06:11:54;;;;;;;2.90;2.70;;;26.00;99.90;;;;;;5032354;28;20570;-50
2021/06/23 06:14:21;;;;;;;3.00;2.80;;;25.20;99.90;;;;;;5033200;28;20496;-50
2021/06/23 06:16:49;;;;;;;3.13;2.83;;;24.40;99.90;;;;;;5032960;28;20452;-50
2021/06/23 06:19:16;;;;;;;3.63;3.33;;;23.70;99.90;;;;;;5033502;28;20461;-50
2021/06/23 06:21:43;;;;;;;3.20;2.90;;;23.10;99.90;;;;;;5032672;28;20473;-50
2021/06/23 06:24:10;;;;;;;3.17;2.97;;;22.70;99.90;;;;;;5027818;28;20476;-53
2021/06/23 06:26:37;;;;;;;3.23;2.93;;;22.50;99.90;;;;;;5022466;28;20470;-52
2021/06/23 06:29:07;;;;;;;3.40;3.10;;;22.80;99.90;;;;;;5018653;28;20952;-52
2021/06/23 06:31:37;;;;;;;3.03;2.73;;;23.60;99.90;;;;;;5027803;28;20792;-52
2021/06/23 06:34:04;;;;;;;3.37;2.83;;;24.10;99.90;;;;;;5032537;28;20449;-51
2021/06/23 06:36:31;;;;;;;3.77;2.33;;;24.70;99.90;;;;;;5025046;28;20958;-50
2021/06/23 06:38:59;;;;;;;6.47;3.10;;;25.30;99.90;;;;;;5012764;28;20449;-52
2021/06/23 06:41:26;;;;;;;3.13;2.93;;;25.00;99.90;;;;;;5012421;28;20473;-51
2021/06/23 06:43:54;;;;;;;3.97;3.67;;;24.80;99.90;;;;;;5017151;28;20440;-52
2021/06/23 06:46:23;;;;;;;3.77;3.47;;;23.80;99.90;;;;;;5024394;28;20453;-51
2021/06/23 06:48:50;;;;;;;3.00;2.80;;;23.90;99.90;;;;;;5026265;28;20446;-51
2021/06/23 06:51:17;;;;;;;3.73;3.53;;;24.40;99.90;;;;;;5026291;28;20539;-53
2021/06/23 06:53:44;;;;;;;3.70;3.50;;;24.60;99.90;;;;;;5020863;28;21021;-51
2021/06/23 06:56:12;;;;;;;4.23;3.93;;;24.90;99.90;;;;;;5017923;28;20446;-51
2021/06/23 06:58:42;;;;;;;3.90;3.60;;;25.10;99.90;;;;;;5026202;28;20448;-52
2021/06/23 07:01:10;;;;;;;3.87;3.60;;;25.90;99.90;;;;;;5026620;28;20527;-52
2021/06/23 07:03:38;;;;;;;5.93;4.33;;;26.70;99.90;;;;;;5032058;28;20452;-52
2021/06/23 07:06:05;;;;;;;5.30;4.80;;;27.20;99.90;;;;;;5021179;28;20910;-52
2021/06/23 07:08:32;;;;;;;4.27;3.87;;;27.60;99.90;;;;;;5022563;28;20962;-51
2021/06/23 07:10:59;;;;;;;5.20;4.80;;;28.20;99.90;;;;;;5022287;28;20465;-52
2021/06/23 07:13:27;;;;;;;5.60;4.60;;;28.60;99.90;;;;;;5022721;28;20538;-52
2021/06/23 07:15:53;;;;;;;5.60;5.20;;;28.80;99.90;;;;;;5021343;28;20957;-52
2021/06/23 07:18:20;;;;;;;4.60;4.30;;;29.10;99.90;;;;;;5023141;28;20893;-52
2021/06/23 07:20:49;;;;;;;4.50;4.20;;;29.30;99.90;;;;;;5025735;28;20476;-52
2021/06/23 07:23:16;;;;;;;5.33;4.40;;;28.90;99.90;;;;;;5021944;28;20522;-52
2021/06/23 07:25:43;;;;;;;4.07;3.77;;;28.50;99.90;;;;;;5021603;28;20457;-52
2021/06/23 07:28:12;;;;;;;4.30;4.00;;;28.10;99.90;;;;;;5024051;28;20486;-52
2021/06/23 07:30:43;;;;;;;4.03;3.77;;;28.20;99.90;;;;;;5019960;28;20460;-53
2021/06/23 07:33:10;;;;;;;4.50;4.10;;;28.60;99.90;;;;;;5022214;28;21089;-52
2021/06/23 07:38:23;;;;;;;4.47;4.17;;;28.80;99.90;;;;;;5023157;28;20510;-53
2021/06/23 07:40:58;;;;;;;4.13;3.93;;;28.20;99.90;;;;;;5022979;28;20472;-53
2021/06/23 07:43:25;;;;;;;4.90;4.50;;;27.40;99.90;;;;;;5022941;28;20468;-51
2021/06/23 07:45:54;;;;;;;4.30;4.00;;;26.90;99.90;;;;;;5025230;28;20468;-52
2021/06/23 07:48:22;;;;;;;4.30;3.97;;;26.90;99.90;;;;;;5023649;28;20461;-53
2021/06/23 07:50:51;;;;;;;5.03;4.63;;;26.70;99.90;;;;;;5029854;28;20582;-52
2021/06/23 07:53:24;;;;;;;3.80;3.50;;;26.20;99.90;;;;;;5022382;28;20484;-52
2021/06/23 07:55:56;;;;;;;4.37;4.07;;;26.00;99.90;;;;;;5028631;28;21041;-51
2021/06/23 08:01:47;;;;;;;5.10;4.70;;;27.50;99.90;;;;;;5023012;28;20472;-51
2021/06/23 08:09:45;;;;;;;4.40;4.10;;;30.00;99.90;;;;;;5024429;28;20502;-52
2021/06/23 08:12:19;;;;;;;4.50;4.10;;;30.20;99.90;;;;;;5022196;28;20489;-53
2021/06/23 08:14:46;;;;;;;4.60;4.30;;;29.90;99.90;;;;;;5029687;28;20500;-52
2021/06/23 08:17:13;;;;;;;4.60;4.20;;;30.40;99.90;;;;;;5029051;28;20534;-52
2021/06/23 08:19:40;;;;;;;5.50;4.00;;;29.80;99.90;;;;;;5025689;28;20456;-53
2021/06/23 08:22:10;;;;;;;5.03;4.53;;;29.90;99.90;;;;;;5024708;28;20533;-54
2021/06/23 08:24:37;;;;;;;4.63;4.23;;;30.50;99.90;;;;;;5028206;28;20492;-53
2021/06/23 08:27:06;;;;;;;4.50;4.20;;;30.50;99.90;;;;;;5024476;28;20535;-53
2021/06/23 08:29:35;;;;;;;4.17;3.80;;;30.70;99.90;;;;;;5018157;28;20607;-53
2021/06/23 08:32:02;;;;;;;4.90;4.50;;;30.80;99.90;;;;;;5024617;28;20488;-53
2021/06/23 08:34:29;;;;;;;4.10;3.80;;;30.50;99.90;;;;;;5029265;28;20492;-53
2021/06/23 08:36:57;;;;;;;3.57;3.37;;;30.70;99.90;;;;;;5029725;28;20472;-53
2021/06/23 08:39:24;;;;;;;5.20;4.80;;;31.00;99.90;;;;;;5025302;28;20461;-53
2021/06/23 08:41:51;;;;;;;5.47;4.70;;;30.80;99.90;;;;;;5021877;28;20485;-52
2021/06/23 08:44:18;;;;;;;3.87;3.57;;;31.00;99.90;;;;;;5019319;28;20449;-53
2021/06/23 08:46:50;;;;;;;4.20;3.53;;;31.40;99.90;;;;;;5027216;28;20986;-52
2021/06/23 08:49:17;;;;;;;4.67;4.37;;;31.90;99.90;;;;;;5028664;28;20448;-51
2021/06/23 08:51:45;;;;;;;5.50;5.00;;;30.20;99.90;;;;;;5029757;28;20897;-52
2021/06/23 08:54:13;;;;;;;4.97;4.67;;;26.70;99.90;;;;;;5020510;28;20539;-52
2021/06/23 08:56:40;;;;;;;5.27;4.87;;;24.70;99.90;;;;;;5018644;28;20465;-53
2021/06/23 08:59:07;;;;;;;5.93;5.43;;;23.50;99.90;;;;;;5025821;28;20444;-52
2021/06/23 09:01:35;;;;;;;7.73;5.33;;;22.80;99.90;;;;;;5031963;28;21009;-52
2021/06/23 09:04:08;;;;;;;5.57;5.10;;;22.30;99.90;;;;;;5027306;28;20953;-52
2021/06/23 09:06:47;;;;;;;6.97;6.27;;;22.10;99.90;;;;;;5026918;28;20541;-51
2021/06/23 09:09:19;;;;;;;6.23;5.57;;;22.50;99.90;;;;;;5024979;28;20456;-51
2021/06/23 09:11:47;;;;;;;5.97;5.37;;;22.80;99.90;;;;;;5025493;28;20493;-52
2021/06/23 09:14:16;;;;;;;6.20;5.70;;;22.70;99.90;;;;;;5031835;28;20484;-51
2021/06/23 09:17:07;;;;;;;6.80;6.10;;;22.40;99.90;;;;;;5031790;28;20978;-52
2021/06/23 09:19:37;;;;;;;6.20;5.70;;;22.20;99.90;;;;;;5025904;28;20463;-50
2021/06/23 09:22:05;;;;;;;7.90;6.10;;;22.20;99.90;;;;;;5032558;28;20521;-50
2021/06/23 09:24:37;;;;;;;8.60;6.30;;;22.10;99.90;;;;;;5026383;28;20954;-52
2021/06/23 09:27:23;;;;;;;6.70;6.10;;;21.90;99.90;;;;;;5025053;28;21076;-52
2021/06/23 09:29:51;;;;;;;5.37;4.87;;;21.90;99.90;;;;;;5024602;28;20502;-51
2021/06/23 09:32:19;;;;;;;5.10;4.67;;;22.30;99.90;;;;;;5025429;28;20559;-51
2021/06/23 09:34:49;;;;;;;5.07;4.63;;;23.10;99.90;;;;;;5025355;28;20533;-51
2021/06/23 09:37:27;;;;;;;4.00;3.70;;;24.30;99.90;;;;;;5025970;28;20769;-51
2021/06/23 09:40:10;;;;;;;3.83;3.53;;;24.30;99.90;;;;;;5024391;28;20523;-52
2021/06/23 09:42:39;;;;;;;5.07;4.33;;;25.00;99.90;;;;;;5021581;28;20503;-52
2021/06/23 09:45:08;;;;;;;3.93;3.70;;;25.40;99.90;;;;;;5027794;28;20469;-52
2021/06/23 09:47:37;;;;;;;5.50;4.60;;;25.90;99.90;;;;;;5023821;28;20839;-53
2021/06/23 09:50:06;;;;;;;4.50;4.10;;;26.00;99.90;;;;;;5024386;28;20888;-52
2021/06/23 09:52:36;;;;;;;4.30;4.00;;;25.10;99.90;;;;;;5025085;28;20615;-53
2021/06/23 09:55:04;;;;;;;3.93;3.63;;;24.80;99.90;;;;;;5025692;28;20496;-51
2021/06/23 09:57:31;;;;;;;3.57;3.27;;;25.00;99.90;;;;;;5025584;28;20467;-51
2021/06/23 10:00:09;;;;;;;3.30;3.10;;;25.30;99.90;;;;;;5025088;28;20844;-51
2021/06/23 10:02:36;;;;;;;3.40;3.10;;;25.80;99.90;;;;;;5025018;28;20487;-53
2021/06/23 10:05:25;;;;;;;3.33;3.07;;;25.10;99.90;;;;;;5025239;28;20469;-51
2021/06/23 10:07:53;;;;;;;4.63;3.00;;;25.30;99.90;;;;;;5024767;28;20469;-52
2021/06/23 10:10:22;;;;;;;3.13;2.93;;;25.80;99.90;;;;;;5023711;28;20468;-51
2021/06/23 10:12:50;;;;;;;3.00;2.80;;;26.50;99.90;;;;;;5021122;28;20538;-51
2021/06/23 10:15:17;;;;;;;3.20;2.90;;;26.10;99.90;;;;;;5024930;28;20456;-50
2021/06/23 10:17:45;;;;;;;3.27;3.07;;;25.70;99.90;;;;;;5050885;22;20879;-59
2021/06/23 10:20:14;;;;;;;3.10;2.90;;;25.80;99.90;;;;;;5028612;28;20469;-58
2021/06/23 10:22:43;;;;;;;2.67;2.43;;;26.00;99.90;;;;;;5020085;28;20534;-59
2021/06/23 10:25:14;;;;;;;2.80;2.60;;;26.60;99.90;;;;;;5028895;28;20555;-59
2021/06/23 10:27:42;;;;;;;3.10;2.80;;;27.50;99.90;;;;;;5031925;28;20527;-60
2021/06/23 10:30:11;;;;;;;3.00;2.80;;;27.70;99.90;;;;;;5028326;28;20894;-59
2021/06/23 10:32:38;;;;;;;3.90;2.83;;;26.80;99.90;;;;;;5026493;28;20463;-60
2021/06/23 10:35:07;;;;;;;3.13;2.93;;;26.60;99.90;;;;;;5026698;28;20492;-59
2021/06/23 10:37:36;;;;;;;3.20;3.00;;;27.40;99.90;;;;;;5022320;28;21002;-59
2021/06/23 10:40:06;;;;;;;3.00;2.80;;;27.60;99.90;;;;;;5022028;28;20475;-58
2021/06/23 10:42:35;;;;;;;3.43;3.13;;;27.70;99.90;;;;;;5022561;28;20492;-59
2021/06/23 10:45:02;;;;;;;3.67;3.30;;;27.40;99.90;;;;;;5024207;28;20542;-59
2021/06/23 10:47:32;;;;;;;3.63;3.33;;;26.80;99.90;;;;;;5025587;28;20489;-59
2021/06/23 10:49:59;;;;;;;3.70;3.40;;;26.10;99.90;;;;;;5028097;28;20464;-59
2021/06/23 10:52:41;;;;;;;3.37;3.17;;;26.30;99.90;;;;;;5021223;28;20894;-59
2021/06/23 10:55:38;;;;;;;3.30;3.10;;;26.20;99.90;;;;;;5025741;28;20601;-59
2021/06/23 10:58:10;;;;;;;3.47;3.17;;;26.90;99.90;;;;;;5023589;28;20575;-58
2021/06/23 11:00:40;;;;;;;3.90;3.60;;;27.10;99.90;;;;;;5022303;28;20542;-59
2021/06/23 11:03:09;;;;;;;4.50;4.13;;;27.30;99.90;;;;;;5023138;28;21043;-59
2021/06/23 11:05:41;;;;;;;3.73;3.40;;;27.30;99.90;;;;;;5022606;28;20520;-59
2021/06/23 11:08:31;;;;;;;3.40;3.20;;;26.50;99.90;;;;;;5021385;28;20579;-59
2021/06/23 11:11:00;;;;;;;3.70;3.40;;;26.70;99.90;;;;;;5021582;28;20525;-58
2021/06/23 11:13:31;;;;;;;4.17;3.77;;;26.20;99.90;;;;;;5022984;28;20484;-58
2021/06/23 11:15:58;;;;;;;4.37;3.63;;;25.80;99.90;;;;;;5026206;28;20465;-58
2021/06/23 11:18:33;;;;;;;4.03;3.83;;;26.00;99.90;;;;;;5023528;28;20476;-59
2021/06/23 11:21:03;;;;;;;4.00;3.70;;;25.40;99.90;;;;;;5027899;28;20471;-58
2021/06/23 11:24:01;;;;;;;3.60;3.40;;;25.70;99.90;;;;;;5029420;28;20511;-59
2021/06/23 11:27:03;;;;;;;3.67;3.10;;;26.10;99.90;;;;;;5023847;28;20950;-58
2021/06/23 11:29:39;;;;;;;4.67;4.33;;;26.50;99.90;;;;;;5030466;28;20565;-59
2021/06/23 11:32:08;;;;;;;3.90;3.60;;;25.50;99.90;;;;;;5028306;28;20534;-59
2021/06/23 11:34:53;;;;;;;3.83;3.53;;;25.50;99.90;;;;;;5031122;28;20488;-59
2021/06/23 11:37:21;;;;;;;4.30;4.00;;;25.00;99.90;;;;;;5029118;28;20476;-59
2021/06/23 11:39:48;;;;;;;4.80;4.40;;;25.30;99.90;;;;;;5029637;28;20464;-58
2021/06/23 11:42:19;;;;;;;4.30;3.90;;;25.50;99.90;;;;;;5029461;28;21037;-59
2021/06/23 11:44:47;;;;;;;4.47;4.17;;;25.80;99.90;;;;;;5030484;28;20554;-59
2021/06/23 11:47:15;;;;;;;5.67;3.40;;;25.60;99.90;;;;;;5020669;28;20465;-58
2021/06/23 11:49:42;;;;;;;3.90;3.60;;;25.80;99.90;;;;;;5022251;28;20507;-59
2021/06/23 11:52:10;;;;;;;4.57;4.20;;;26.20;99.90;;;;;;5021380;28;20496;-58
2021/06/23 11:54:38;;;;;;;3.83;3.40;;;26.20;99.90;;;;;;5021648;28;20484;-58
2021/06/23 11:57:06;;;;;;;4.20;3.53;;;26.50;99.90;;;;;;5025732;28;20468;-58
2021/06/23 11:59:33;;;;;;;3.83;3.53;;;26.60;99.90;;;;;;5022872;28;20464;-59
2021/06/23 12:02:02;;;;;;;5.23;4.10;;;26.00;99.90;;;;;;5021918;28;20464;-58
2021/06/23 12:04:31;;;;;;;3.70;3.50;;;25.60;99.90;;;;;;5026587;28;20460;-58
2021/06/23 12:06:58;;;;;;;4.90;4.20;;;25.70;99.90;;;;;;5031029;28;20448;-58
2021/06/23 12:09:25;;;;;;;3.40;3.20;;;25.70;99.90;;;;;;5014303;28;20994;-58
2021/06/23 12:11:52;;;;;;;4.87;4.43;;;25.50;99.90;;;;;;5021093;28;20980;-59
2021/06/23 12:14:19;;;;;;;4.57;4.17;;;24.90;99.90;;;;;;5021867;28;20534;-58
2021/06/23 12:16:46;;;;;;;3.80;3.50;;;25.30;99.90;;;;;;5021100;28;20514;-58
2021/06/23 12:19:14;;;;;;;3.87;3.50;;;25.30;99.90;;;;;;5027522;28;20522;-59
2021/06/23 12:21:42;;;;;;;3.83;3.53;;;25.50;99.90;;;;;;5021705;28;20871;-59
2021/06/23 12:24:09;;;;;;;5.57;3.80;;;25.70;99.90;;;;;;5022122;28;20460;-59
2021/06/23 12:26:37;;;;;;;3.97;3.57;;;25.80;99.90;;;;;;5021964;28;20475;-58
2021/06/23 12:29:05;;;;;;;3.43;3.13;;;25.40;99.90;;;;;;5022006;28;20517;-60
2021/06/23 12:31:35;;;;;;;3.40;3.20;;;25.60;99.90;;;;;;5022367;28;20460;-59
2021/06/23 12:34:08;;;;;;;3.70;3.20;;;25.90;99.90;;;;;;5024075;28;20546;-58
2021/06/23 12:36:36;;;;;;;6.43;3.17;;;26.20;99.90;;;;;;5025033;28;20464;-59
2021/06/23 12:39:04;;;;;;;3.63;3.33;;;25.90;99.90;;;;;;5024499;28;20996;-59
2021/06/23 12:41:33;;;;;;;3.70;3.50;;;25.80;99.90;;;;;;5025238;28;20468;-59
2021/06/23 12:44:00;;;;;;;3.10;2.90;;;25.70;99.90;;;;;;5026286;28;20460;-58
2021/06/23 12:46:27;;;;;;;3.83;3.50;;;25.70;99.90;;;;;;5033862;28;20514;-58
2021/06/23 12:48:54;;;;;;;3.40;3.20;;;25.60;99.90;;;;;;5026272;28;20496;-59
2021/06/23 12:51:21;;;;;;;3.70;3.40;;;25.10;99.90;;;;;;5026865;28;20966;-59
2021/06/23 12:53:50;;;;;;;3.67;3.37;;;25.10;99.90;;;;;;5031908;28;20941;-59
2021/06/23 12:56:17;;;;;;;3.50;3.20;;;25.40;99.90;;;;;;5024623;28;20468;-57
2021/06/23 12:58:44;;;;;;;3.40;3.20;;;25.80;99.90;;;;;;5026423;28;21024;-58
2021/06/23 13:01:11;;;;;;;3.57;3.20;;;25.60;99.90;;;;;;5029475;28;20460;-58
2021/06/23 13:03:38;;;;;;;3.77;3.57;;;25.70;99.90;;;;;;5025644;28;20468;-59
2021/06/23 13:06:07;;;;;;;3.50;3.20;;;25.30;99.90;;;;;;5023838;28;20530;-58